Time;durP1;ratioP1;P1;durP2;ratioP2;P2;SDS_P1;SDS_P2;PMS_P1;PMS_P2;Temp;Humidity;BMP_temperature;BMP_pressure;BME280_temperature;BME280_humidity;BME280_pressure;Samples;Min_cycle;Max_cycle;Signal;HPM_P1;HPM_P2
2022/03/06 00:01:55;;;;;;;;;87.50;74.50;;;;;23.90;27.52;101515.22;5070228;27;47188;-76
2022/03/06 00:04:20;;;;;;;;;84.00;67.25;;;;;23.78;27.71;101481.13;5097958;27;45454;-76
2022/03/06 00:06:46;;;;;;;;;98.50;81.75;;;;;23.89;27.34;101500.75;5097957;27;45537;-77
2022/03/06 00:09:11;;;;;;;;;85.25;68.25;;;;;23.86;27.45;101480.94;5079717;27;45311;-76
2022/03/06 00:11:36;;;;;;;;;86.50;67.00;;;;;23.77;27.56;101485.66;5097878;27;45837;-76
2022/03/06 00:14:02;;;;;;;;;87.50;68.25;;;;;23.76;27.56;101475.75;5097806;27;45359;-76
2022/03/06 00:16:27;;;;;;;;;82.50;65.50;;;;;23.94;27.66;101516.91;5079269;27;45440;-77
2022/03/06 00:18:52;;;;;;;;;86.25;70.00;;;;;23.60;27.49;101486.06;5097740;27;45305;-76
2022/03/06 00:21:18;;;;;;;;;84.75;69.50;;;;;23.71;27.55;101517.44;5097917;27;46516;-77
2022/03/06 00:23:43;;;;;;;;;85.25;68.75;;;;;23.74;27.46;101504.72;5097767;27;45824;-76
2022/03/06 00:26:09;;;;;;;;;78.75;62.75;;;;;23.89;27.21;101514.31;5097794;27;45216;-80
2022/03/06 00:28:34;;;;;;;;;85.75;63.50;;;;;23.89;27.33;101513.41;5097800;27;45363;-80
2022/03/06 00:31:00;;;;;;;;;85.75;69.75;;;;;23.77;27.08;101512.75;5078398;27;48134;-80
2022/03/06 00:33:25;;;;;;;;;81.50;62.50;;;;;23.50;27.33;101489.94;5097292;27;45275;-80
2022/03/06 00:35:51;;;;;;;;;85.00;65.25;;;;;23.62;27.19;101516.72;5097481;27;45253;-79
2022/03/06 00:38:16;;;;;;;;;80.00;60.25;;;;;23.49;26.85;101498.97;5097889;27;45322;-79
2022/03/06 00:40:44;;;;;;;;;83.00;64.25;;;;;23.37;27.51;101478.47;5097447;27;45329;-79
2022/03/06 00:43:10;;;;;;;;;86.00;66.25;;;;;23.10;27.42;101453.78;5079270;27;45373;-79
2022/03/06 00:45:35;;;;;;;;;83.75;67.00;;;;;23.39;27.24;101502.81;5097747;27;45345;-79
2022/03/06 00:48:01;;;;;;;;;81.75;63.75;;;;;23.32;27.43;101490.34;5078986;27;45843;-80
2022/03/06 00:50:26;;;;;;;;;81.25;63.75;;;;;23.29;27.21;101512.97;5097423;27;45356;-80
2022/03/06 00:52:52;;;;;;;;;80.00;59.25;;;;;22.71;27.32;101431.16;5078880;27;45564;-79
2022/03/06 00:55:18;;;;;;;;;82.50;62.75;;;;;23.21;27.50;101523.97;5097569;27;45445;-79
2022/03/06 00:57:44;;;;;;;;;80.50;62.00;;;;;23.16;27.25;101506.91;5095847;27;45368;-80
2022/03/06 01:00:10;;;;;;;;;83.50;65.75;;;;;23.24;27.40;101514.88;5097019;27;45362;-79
2022/03/06 01:02:35;;;;;;;;;78.25;60.00;;;;;23.19;27.14;101512.28;5096664;27;45694;-80
2022/03/06 01:05:01;;;;;;;;;85.50;65.75;;;;;23.21;26.95;101512.25;5096909;27;45355;-80
2022/03/06 01:07:26;;;;;;;;;76.25;60.75;;;;;23.24;26.83;101531.13;5078569;27;45483;-79
2022/03/06 01:09:52;;;;;;;;;74.75;60.25;;;;;23.24;26.75;101523.88;5096697;27;45434;-80
2022/03/06 01:12:17;;;;;;;;;84.00;62.50;;;;;23.16;26.87;101514.16;5097028;27;45378;-79
2022/03/06 01:14:42;;;;;;;;;79.00;59.50;;;;;23.01;26.39;101496.38;5078528;27;45315;-79
2022/03/06 01:17:08;;;;;;;;;78.75;59.50;;;;;22.99;26.79;101509.06;5078185;27;45528;-80
2022/03/06 01:19:33;;;;;;;;;80.25;62.25;;;;;22.95;26.34;101525.38;5096877;27;45446;-80
2022/03/06 01:21:58;;;;;;;;;73.50;57.75;;;;;22.83;26.30;101519.31;5096669;27;45355;-79
2022/03/06 01:24:24;;;;;;;;;79.75;59.00;;;;;22.89;26.19;101514.66;5097082;27;45429;-80
2022/03/06 01:26:49;;;;;;;;;75.75;58.25;;;;;22.83;26.18;101520.19;5096665;27;45667;-80
2022/03/06 01:29:14;;;;;;;;;78.25;59.75;;;;;22.38;25.88;101494.00;5096492;27;46169;-81
2022/03/06 01:31:40;;;;;;;;;78.75;61.00;;;;;22.34;26.09;101540.94;5096766;27;45445;-81
2022/03/06 01:34:05;;;;;;;;;81.50;63.00;;;;;22.03;26.12;101495.47;5078450;27;45431;-80
2022/03/06 01:36:31;;;;;;;;;73.50;57.75;;;;;22.23;26.07;101519.44;5096741;27;45425;-80
2022/03/06 01:38:57;;;;;;;;;72.50;57.25;;;;;22.40;26.01;101532.72;5078071;27;48465;-80
2022/03/06 01:41:23;;;;;;;;;77.00;58.75;;;;;22.19;25.76;101536.66;5096232;27;45423;-79
2022/03/06 01:43:48;;;;;;;;;73.50;55.50;;;;;22.08;26.14;101533.22;5096699;27;45364;-79
2022/03/06 01:46:14;;;;;;;;;78.00;61.00;;;;;22.02;26.03;101507.19;5096355;27;45457;-79
2022/03/06 01:48:39;;;;;;;;;70.00;54.50;;;;;22.23;25.52;101518.56;5096587;27;46446;-80
2022/03/06 01:51:05;;;;;;;;;76.75;57.50;;;;;22.12;25.58;101496.25;5076487;27;45506;-80
2022/03/06 01:53:30;;;;;;;;;74.75;56.50;;;;;22.07;25.74;101502.63;5057927;28;45362;-80
2022/03/06 01:55:56;;;;;;;;;68.75;56.75;;;;;21.91;25.35;101463.25;5076126;28;45512;-80
2022/03/06 01:58:21;;;;;;;;;72.50;56.75;;;;;21.97;25.48;101517.22;5075913;28;45435;-80
2022/03/06 02:00:50;;;;;;;;;75.25;59.00;;;;;21.97;25.55;101537.91;5075542;28;45288;-80
2022/03/06 02:03:19;;;;;;;;;75.25;57.00;;;;;21.80;25.73;101517.47;5057575;28;45485;-79
2022/03/06 02:05:45;;;;;;;;;76.75;58.00;;;;;21.89;25.55;101513.72;5076131;28;45237;-80
2022/03/06 02:08:11;;;;;;;;;76.25;58.25;;;;;21.93;25.85;101521.75;5075664;28;46536;-80
2022/03/06 02:10:36;;;;;;;;;73.75;56.50;;;;;22.00;25.40;101519.84;5057466;28;45766;-80
2022/03/06 02:13:02;;;;;;;;;76.75;60.50;;;;;22.01;25.20;101521.66;5075325;28;45301;-80
2022/03/06 02:15:28;;;;;;;;;74.25;58.25;;;;;21.86;25.34;101511.97;5057547;28;45622;-80
2022/03/06 02:17:53;;;;;;;;;63.25;52.25;;;;;21.95;25.43;101531.66;5075638;28;45665;-80
2022/03/06 02:20:24;;;;;;;;;78.00;58.25;;;;;22.08;25.28;101538.63;5075626;28;45408;-80
2022/03/06 02:22:54;;;;;;;;;76.00;58.00;;;;;22.01;25.32;101542.34;5075841;28;45419;-80
2022/03/06 02:25:21;;;;;;;;;75.00;58.25;;;;;22.10;25.15;101540.38;5057376;28;45344;-81
2022/03/06 02:27:48;;;;;;;;;75.00;58.50;;;;;21.68;25.11;101487.94;5075106;28;46414;-81
2022/03/06 02:30:17;;;;;;;;;67.25;54.75;;;;;21.78;25.40;101513.88;5057040;28;45467;-81
2022/03/06 02:32:45;;;;;;;;;73.25;58.50;;;;;21.92;25.26;101529.88;5075487;28;45232;-81
2022/03/06 02:35:11;;;;;;;;;76.50;59.00;;;;;21.75;25.36;101524.75;5075130;28;45489;-81
2022/03/06 02:37:37;;;;;;;;;72.75;55.50;;;;;21.69;25.17;101500.56;5075474;28;45382;-81
2022/03/06 02:40:05;;;;;;;;;69.75;55.25;;;;;21.73;25.09;101500.47;5084915;27;45569;-80
2022/03/06 02:42:36;;;;;;;;;75.75;59.25;;;;;21.83;25.23;101530.94;5095557;27;45327;-80
2022/03/06 02:45:09;;;;;;;;;68.50;54.00;;;;;21.48;25.32;101534.13;5095857;27;45332;-80
2022/03/06 02:47:35;;;;;;;;;81.25;59.75;;;;;21.28;25.57;101526.28;5095640;27;46264;-80
2022/03/06 02:50:02;;;;;;;;;78.50;59.50;;;;;21.27;25.69;101519.13;5076910;27;45381;-80
2022/03/06 02:52:28;;;;;;;;;69.50;54.50;;;;;21.06;25.73;101515.78;5096349;27;45366;-81
2022/03/06 02:54:53;;;;;;;;;75.75;57.75;;;;;21.10;26.09;101527.44;5080817;27;45535;-80
2022/03/06 02:57:19;;;;;;;;;71.75;55.25;;;;;20.86;25.88;101500.72;5080387;27;47558;-80
2022/03/06 02:59:44;;;;;;;;;78.75;59.00;;;;;;;;5099022;27;45507;-81
2022/03/06 03:02:10;;;;;;;;;76.75;57.75;;;;;21.02;25.92;101530.19;5080527;27;45492;-81
2022/03/06 03:04:39;;;;;;;;;78.25;61.50;;;;;21.03;25.69;101522.09;5098973;27;45407;-81
2022/03/06 03:07:06;;;;;;;;;71.75;57.50;;;;;20.95;25.97;101515.00;5098888;27;46359;-80
2022/03/06 03:09:33;;;;;;;;;73.50;57.50;;;;;20.79;25.95;101487.34;5080432;27;45387;-80
2022/03/06 03:11:58;;;;;;;;;71.50;57.25;;;;;21.02;25.62;101514.00;5098558;27;45781;-80
2022/03/06 03:14:24;;;;;;;;;77.00;59.50;;;;;20.90;25.69;101498.88;5099079;27;45393;-80
2022/03/06 03:16:49;;;;;;;;;80.00;60.25;;;;;20.98;25.71;101534.72;5098634;27;45255;-80
2022/03/06 03:19:15;;;;;;;;;78.00;60.75;;;;;20.63;26.02;101479.38;5098833;27;45397;-80
2022/03/06 03:21:40;;;;;;;;;74.50;57.25;;;;;20.83;25.94;101525.03;5098833;27;45387;-80
2022/03/06 03:24:06;;;;;;;;;77.00;59.25;;;;;20.65;25.88;101512.59;5098890;27;45383;-80
2022/03/06 03:26:32;;;;;;;;;74.75;58.00;;;;;20.50;26.25;101521.72;5098363;27;46571;-76
2022/03/06 03:28:58;;;;;;;;;71.25;57.50;;;;;20.72;26.21;101543.13;5098358;27;45434;-76
2022/03/06 03:31:23;;;;;;;;;76.50;57.50;;;;;20.59;26.26;101536.03;5098756;27;45619;-76
2022/03/06 03:33:48;;;;;;;;;78.00;61.00;;;;;20.45;26.35;101531.69;5098678;27;45373;-76
2022/03/06 03:36:14;;;;;;;;;77.75;60.00;;;;;20.55;26.29;101554.94;5080022;27;47202;-76
2022/03/06 03:38:40;;;;;;;;;77.25;61.25;;;;;20.50;26.13;101519.03;5098520;27;45676;-76
2022/03/06 03:41:07;;;;;;;;;43.75;34.50;;;;;20.46;26.32;101536.16;5079874;27;45474;-76
2022/03/06 03:43:32;;;;;;;;;75.00;59.25;;;;;20.34;26.38;101530.91;5079966;27;45417;-77
2022/03/06 03:45:58;;;;;;;;;75.50;59.25;;;;;20.25;26.23;101491.44;5098179;27;46094;-76
2022/03/06 03:48:28;;;;;;;;;75.25;57.75;;;;;20.51;26.20;101528.03;5098329;27;45440;-76
2022/03/06 03:50:54;;;;;;;;;73.25;59.75;;;;;20.63;26.23;101529.69;5098536;27;45278;-76
2022/03/06 03:53:21;;;;;;;;;69.25;53.25;;;;;20.66;25.93;101546.75;5097985;27;45325;-76
2022/03/06 03:55:47;;;;;;;;;71.75;55.25;;;;;20.47;26.31;101545.16;5097735;27;45525;-76
2022/03/06 03:58:13;;;;;;;;;78.25;60.50;;;;;19.99;26.18;101505.16;5096574;27;46080;-76
2022/03/06 04:00:38;;;;;;;;;79.50;63.00;;;;;20.11;26.42;101521.22;5079663;27;45433;-76
2022/03/06 04:03:04;;;;;;;;;75.00;59.25;;;;;20.02;26.26;101519.47;5098155;27;45421;-76
2022/03/06 04:05:29;;;;;;;;;83.00;63.00;;;;;19.97;26.31;101536.56;5097724;27;46360;-76
2022/03/06 04:07:55;;;;;;;;;82.50;63.50;;;;;19.84;26.37;101525.91;5098017;27;45394;-75
2022/03/06 04:10:20;;;;;;;;;78.50;59.25;;;;;19.77;26.63;101528.59;5097836;27;45427;-75
2022/03/06 04:12:45;;;;;;;;;75.25;56.00;;;;;19.42;26.72;101525.22;5097881;27;45425;-76
2022/03/06 04:15:11;;;;;;;;;81.50;63.75;;;;;19.60;26.82;101536.78;5097110;27;46771;-76
2022/03/06 04:17:38;;;;;;;;;61.50;49.50;;;;;19.68;26.72;101556.50;5097759;27;45440;-76
2022/03/06 04:20:04;;;;;;;;;77.00;60.00;;;;;19.88;26.68;101569.84;5097927;27;45322;-76
2022/03/06 04:22:30;;;;;;;;;79.50;61.75;;;;;19.79;26.82;101565.44;5097845;27;45375;-76
2022/03/06 04:24:55;;;;;;;;;81.75;61.25;;;;;19.73;26.54;101535.78;5096013;27;46004;-76
2022/03/06 04:27:21;;;;;;;;;75.75;61.50;;;;;19.69;26.72;101542.13;5079003;27;45851;-76
2022/03/06 04:29:46;;;;;;;;;74.25;59.75;;;;;19.64;27.37;101565.50;5097900;27;45819;-76
2022/03/06 04:32:11;;;;;;;;;77.50;61.25;;;;;19.63;26.68;101567.25;5097791;27;45792;-76
2022/03/06 04:34:37;;;;;;;;;78.00;59.50;;;;;19.52;27.00;101542.22;5097496;27;45463;-76
2022/03/06 04:37:03;;;;;;;;;77.50;58.75;;;;;19.75;26.61;101573.50;5097599;27;45339;-76
2022/03/06 04:39:28;;;;;;;;;79.25;61.00;;;;;19.74;26.76;101583.38;5097266;27;45364;-76
2022/03/06 04:41:54;;;;;;;;;80.50;64.00;;;;;19.57;26.96;101558.34;5097667;27;45342;-76
2022/03/06 04:44:19;;;;;;;;;75.25;59.25;;;;;19.72;26.88;101569.03;5079027;27;48050;-77
2022/03/06 04:46:46;;;;;;;;;77.25;60.75;;;;;19.59;27.03;101572.69;5079219;27;46223;-77
2022/03/06 04:49:12;;;;;;;;;77.50;59.75;;;;;19.44;26.99;101577.25;5097402;27;45255;-77
2022/03/06 04:51:38;;;;;;;;;76.50;59.00;;;;;19.20;27.23;101544.16;5096173;27;45250;-77
2022/03/06 04:54:03;;;;;;;;;79.50;61.25;;;;;19.58;27.00;101597.81;5096850;27;45331;-76
2022/03/06 04:56:29;;;;;;;;;84.25;63.25;;;;;19.42;26.97;101580.84;5097036;27;45340;-76
2022/03/06 04:58:55;;;;;;;;;80.00;64.25;;;;;19.48;27.17;101570.94;5097250;27;45342;-76
2022/03/06 05:01:20;;;;;;;;;73.25;59.50;;;;;19.65;27.00;101594.22;5096513;27;45466;-76
2022/03/06 05:03:46;;;;;;;;;79.25;61.50;;;;;19.51;27.24;101573.63;5078512;27;47055;-75
2022/03/06 05:06:11;;;;;;;;;84.25;64.75;;;;;19.67;26.94;101592.38;5078160;27;46198;-75
2022/03/06 05:08:36;;;;;;;;;78.50;61.75;;;;;19.65;27.00;101591.50;5096486;27;45439;-76
2022/03/06 05:11:02;;;;;;;;;77.75;61.50;;;;;19.50;27.08;101570.94;5096832;27;45363;-76
2022/03/06 05:13:27;;;;;;;;;69.50;56.00;;;;;19.69;27.05;101601.38;5096405;27;45571;-75
2022/03/06 05:15:53;;;;;;;;;80.00;61.25;;;;;19.67;27.05;101595.97;5095840;27;45472;-75
2022/03/06 05:18:18;;;;;;;;;81.00;62.00;;;;;19.61;26.89;101593.31;5078256;27;45371;-75
2022/03/06 05:20:44;;;;;;;;;78.50;61.50;;;;;19.56;26.85;101599.63;5096847;27;45505;-75
2022/03/06 05:23:10;;;;;;;;;78.75;62.00;;;;;19.51;26.80;101587.06;5096313;27;45505;-74
2022/03/06 05:25:35;;;;;;;;;84.00;63.50;;;;;19.52;27.06;101599.63;5096522;27;45414;-75
2022/03/06 05:28:00;;;;;;;;;83.25;63.75;;;;;19.23;26.96;101548.63;5096536;27;45535;-75
2022/03/06 05:30:26;;;;;;;;;81.25;62.75;;;;;19.42;27.19;101600.56;5096320;27;45640;-75
2022/03/06 05:32:51;;;;;;;;;78.75;62.25;;;;;19.36;27.36;101597.91;5077699;27;47476;-75
2022/03/06 05:35:17;;;;;;;;;76.75;61.75;;;;;19.49;27.12;101615.81;5096077;27;45329;-75
2022/03/06 05:37:42;;;;;;;;;82.75;63.00;;;;;19.35;27.25;101594.34;5096231;27;45291;-75
2022/03/06 05:40:08;;;;;;;;;74.00;58.25;;;;;19.27;27.38;101603.31;5096384;27;45575;-75
2022/03/06 05:42:34;;;;;;;;;78.25;62.75;;;;;19.16;27.59;101598.00;5077606;27;48445;-75
2022/03/06 05:44:59;;;;;;;;;77.50;61.50;;;;;19.20;27.86;101606.03;5096167;27;45497;-75
2022/03/06 05:47:25;;;;;;;;;78.75;61.75;;;;;19.29;27.72;101623.06;5095982;27;45459;-76
2022/03/06 05:49:50;;;;;;;;;80.25;61.00;;;;;19.15;27.60;101602.44;5096203;27;45507;-75
2022/03/06 05:52:16;;;;;;;;;80.50;63.00;;;;;19.10;27.57;101593.53;5095670;27;47040;-75
2022/03/06 05:54:42;;;;;;;;;79.50;59.50;;;;;19.33;27.50;101624.84;5077393;27;45544;-79
2022/03/06 05:57:07;;;;;;;;;77.25;59.75;;;;;18.98;27.43;101591.75;5077735;27;45479;-78
2022/03/06 05:59:33;;;;;;;;;80.50;62.25;;;;;18.98;27.78;101609.69;5095094;27;45333;-79
2022/03/06 06:01:58;;;;;;;;;81.00;64.50;;;;;18.92;27.64;101590.88;5094525;27;47220;-80
2022/03/06 06:04:24;;;;;;;;;80.75;64.50;;;;;18.66;27.41;101562.19;5094502;27;45561;-81
2022/03/06 06:06:49;;;;;;;;;84.25;65.25;;;;;19.02;27.96;101614.16;5083439;27;45429;-80
2022/03/06 06:09:15;;;;;;;;;81.00;63.25;;;;;19.13;27.80;101636.53;5057310;28;45381;-80
2022/03/06 06:11:40;;;;;;;;;79.75;63.50;;;;;18.98;27.53;101598.94;5075527;28;45530;-79
2022/03/06 06:14:06;;;;;;;;;84.75;63.75;;;;;18.98;27.55;101610.56;5075556;27;45351;-77
2022/03/06 06:16:31;;;;;;;;;84.50;65.25;;;;;18.77;27.46;101592.66;5071280;27;45423;-78
2022/03/06 06:18:57;;;;;;;;;83.50;62.25;;;;;18.95;27.66;101639.28;5075866;27;46159;-78
2022/03/06 06:21:23;;;;;;;;;85.25;64.50;;;;;19.05;27.33;101630.28;5072600;27;46262;-78
2022/03/06 06:23:48;;;;;;;;;83.00;62.00;;;;;18.96;27.50;101616.88;5071763;27;45436;-83
2022/03/06 06:26:15;;;;;;;;;85.00;63.50;;;;;19.29;27.20;101648.16;5075622;27;45823;-84
2022/03/06 06:28:40;;;;;;;;;81.50;61.50;;;;;19.01;27.19;101596.22;5065965;27;46202;-78
2022/03/06 06:31:06;;;;;;;;;80.25;63.75;;;;;18.84;27.42;101602.50;5087907;27;46419;-80
2022/03/06 06:33:32;;;;;;;;;83.50;63.50;;;;;19.18;27.09;101650.88;5088372;27;45504;-78
2022/03/06 06:35:57;;;;;;;;;89.00;63.25;;;;;18.98;27.03;101612.38;5088750;27;45648;-76
2022/03/06 06:38:23;;;;;;;;;81.75;61.25;;;;;19.18;27.15;101675.09;5079841;27;45722;-79
2022/03/06 06:40:50;;;;;;;;;86.00;65.00;;;;;19.13;27.37;101639.22;5071215;27;46604;-78
2022/03/06 06:43:16;;;;;;;;;86.00;63.75;;;;;19.17;27.23;101640.13;5072000;27;45542;-79
2022/03/06 06:45:42;;;;;;;;;79.25;60.25;;;;;19.22;27.04;101632.94;5075451;27;45445;-78
2022/03/06 06:48:07;;;;;;;;;75.00;57.00;;;;;19.43;27.03;101675.03;5082905;27;46031;-78
2022/03/06 06:50:33;;;;;;;;;81.50;63.25;;;;;19.45;26.97;101669.63;5069402;27;47120;-78
2022/03/06 06:52:58;;;;;;;;;78.25;62.25;;;;;19.49;26.53;101675.03;5069800;27;45465;-79
2022/03/06 06:55:24;;;;;;;;;81.75;64.00;;;;;19.57;26.97;101679.47;5082362;27;45756;-78
2022/03/06 06:57:49;;;;;;;;;78.75;59.50;;;;;19.46;26.68;101680.38;5077006;27;45439;-77
2022/03/06 07:00:15;;;;;;;;;82.50;63.75;;;;;19.05;26.71;101632.97;5070582;27;46967;-78
2022/03/06 07:02:42;;;;;;;;;85.00;65.00;;;;;19.34;26.87;101683.13;5086765;27;46142;-76
2022/03/06 07:05:08;;;;;;;;;81.75;61.00;;;;;19.31;26.53;101672.34;5072861;27;45480;-78
2022/03/06 07:07:33;;;;;;;;;84.50;63.50;;;;;19.11;26.65;101667.94;5078537;27;45433;-77
2022/03/06 07:09:59;;;;;;;;;85.25;66.25;;;;;19.10;26.92;101665.22;5089120;27;47870;-77
2022/03/06 07:12:24;;;;;;;;;79.75;61.50;;;;;19.19;26.89;101697.50;5060465;27;45649;-77
2022/03/06 07:14:49;;;;;;;;;79.50;62.75;;;;;19.18;27.09;101695.69;5078236;27;45618;-79
2022/03/06 07:17:15;;;;;;;;;82.75;64.75;;;;;19.15;27.22;101696.59;5079143;27;45493;-80
2022/03/06 07:19:40;;;;;;;;;80.75;64.00;;;;;18.85;27.08;101662.56;5086431;27;46068;-78
2022/03/06 07:22:05;;;;;;;;;77.75;62.00;;;;;19.10;27.07;101705.56;5079561;27;45425;-79
2022/03/06 07:24:31;;;;;;;;;82.75;59.50;;;;;18.77;27.60;101694.81;5079303;27;45506;-79
2022/03/06 07:26:56;;;;;;;;;82.00;64.25;;;;;18.78;26.92;101677.78;5079994;27;46086;-79
2022/03/06 07:29:21;;;;;;;;;89.25;67.00;;;;;18.71;27.69;101676.00;5072160;27;46491;-79
2022/03/06 07:31:47;;;;;;;;;84.50;66.25;;;;;18.62;27.32;101657.16;5070426;27;46192;-79
2022/03/06 07:34:12;;;;;;;;;89.50;66.25;;;;;18.52;27.37;101651.81;5070985;27;45905;-78
2022/03/06 07:36:37;;;;;;;;;87.50;64.25;;;;;18.78;27.10;101671.53;5086834;27;45620;-79
2022/03/06 07:39:03;;;;;;;;;85.00;63.00;;;;;18.79;27.25;101689.44;5063376;27;48493;-79
2022/03/06 07:41:28;;;;;;;;;78.50;60.50;;;;;18.83;26.87;101704.66;5088527;27;45831;-78
2022/03/06 07:43:53;;;;;;;;;86.25;65.50;;;;;18.66;27.38;101676.00;5083546;27;46562;-79
2022/03/06 07:46:19;;;;;;;;;79.25;63.25;;;;;18.90;27.14;101689.47;5079200;27;45894;-78
2022/03/06 07:48:44;;;;;;;;;82.00;63.75;;;;;19.08;26.80;101721.72;5078373;27;46260;-78
2022/03/06 07:51:09;;;;;;;;;80.75;66.00;;;;;19.00;26.73;101697.53;5079564;27;45429;-78
2022/03/06 07:53:35;;;;;;;;;75.25;61.50;;;;;18.82;26.78;101659.88;5060596;27;46035;-78
2022/03/06 07:56:00;;;;;;;;;84.50;64.25;;;;;19.00;26.82;101710.06;5080030;27;45567;-79
2022/03/06 07:58:26;;;;;;;;;86.25;66.75;;;;;18.97;26.76;101697.53;5071252;27;47551;-79
2022/03/06 08:00:51;;;;;;;;;84.50;63.00;;;;;19.14;26.97;101713.66;5072133;27;45972;-78
2022/03/06 08:03:16;;;;;;;;;77.00;61.00;;;;;19.47;26.62;101756.66;5085028;27;46102;-78
2022/03/06 08:05:43;;;;;;;;;82.00;61.75;;;;;19.44;25.91;101746.78;5065620;27;45385;-78
2022/03/06 08:08:08;;;;;;;;;78.25;61.00;;;;;19.42;26.53;101745.88;5077681;27;47290;-83
2022/03/06 08:10:33;;;;;;;;;73.00;58.00;;;;;19.16;26.40;101708.28;5062160;27;45661;-82
2022/03/06 08:12:59;;;;;;;;;80.50;63.50;;;;;18.94;26.45;101681.38;5083816;27;45576;-79
2022/03/06 08:15:24;;;;;;;;;80.00;63.00;;;;;19.47;26.22;101753.97;5058880;27;46004;-77
2022/03/06 08:17:49;;;;;;;;;82.25;64.50;;;;;19.31;26.39;101715.41;5076017;27;45999;-81
2022/03/06 08:20:15;;;;;;;;;78.50;60.50;;;;;19.53;26.30;101745.88;5067729;27;46139;-79
2022/03/06 08:22:40;;;;;;;;;78.25;58.25;;;;;19.49;26.05;101731.53;5078842;27;45439;-81
2022/03/06 08:25:07;;;;;;;;;74.25;59.25;;;;;19.83;25.75;101762.84;5082021;27;45437;-79
2022/03/06 08:27:32;;;;;;;;;79.00;61.50;;;;;19.36;25.08;101709.13;5079697;27;45545;-80
2022/03/06 08:29:59;;;;;;;;;80.25;62.00;;;;;19.71;25.32;101767.34;5059763;27;45411;-79
2022/03/06 08:32:24;;;;;;;;;81.25;61.00;;;;;19.48;25.54;101716.28;5076502;27;45443;-78
2022/03/06 08:34:51;;;;;;;;;74.00;59.25;;;;;19.84;25.10;101776.34;5079050;27;46536;-79
2022/03/06 08:37:18;;;;;;;;;71.50;56.75;;;;;19.54;24.89;101753.06;5072582;27;46100;-77
2022/03/06 08:39:45;;;;;;;;;71.75;57.75;;;;;19.60;25.16;101736.00;5081558;27;45468;-77
2022/03/06 08:42:10;;;;;;;;;79.00;61.25;;;;;19.70;25.11;101752.13;5087301;27;45612;-78
2022/03/06 08:44:36;;;;;;;;;79.50;61.00;;;;;19.76;24.97;101755.66;5075029;27;45456;-78
2022/03/06 08:47:01;;;;;;;;;73.25;57.75;;;;;19.85;24.43;101770.03;5081831;27;47964;-78
2022/03/06 08:49:26;;;;;;;;;75.50;54.25;;;;;19.78;24.42;101744.00;5070628;27;45461;-77
2022/03/06 08:51:52;;;;;;;;;76.25;58.50;;;;;20.01;24.45;101767.28;5075706;27;45549;-78
2022/03/06 08:54:17;;;;;;;;;68.50;53.25;;;;;19.93;24.69;101742.19;5070118;27;45816;-76
2022/03/06 08:56:43;;;;;;;;;67.50;53.50;;;;;20.33;23.70;101763.56;5068777;27;46186;-77
2022/03/06 08:59:08;;;;;;;;;68.50;54.00;;;;;19.83;23.53;101736.84;5075806;27;46542;-77
2022/03/06 09:01:34;;;;;;;;;63.75;52.50;;;;;20.05;23.88;101761.00;5068747;27;45476;-77
2022/03/06 09:03:59;;;;;;;;;66.50;55.00;;;;;19.88;23.91;101715.28;5072411;27;45850;-77
2022/03/06 09:06:24;;;;;;;;;68.50;52.75;;;;;20.23;23.54;101760.91;5077995;27;46363;-77
2022/03/06 09:08:50;;;;;;;;;69.00;54.25;;;;;20.44;24.01;101785.06;5061502;28;45564;-77
2022/03/06 09:11:15;;;;;;;;;69.50;54.00;;;;;20.37;23.58;101768.03;5076165;27;45896;-78
2022/03/06 09:13:41;;;;;;;;;56.25;44.25;;;;;20.28;23.53;101774.38;5080699;27;45581;-77
2022/03/06 09:16:06;;;;;;;;;61.00;51.25;;;;;20.22;23.08;101766.28;5072146;27;46693;-77
2022/03/06 09:18:32;;;;;;;;;66.25;52.50;;;;;20.42;23.15;101782.38;5080925;27;45660;-77
2022/03/06 09:20:57;;;;;;;;;64.00;52.25;;;;;20.32;23.29;101761.75;5070472;27;45926;-77
2022/03/06 09:23:24;;;;;;;;;66.75;52.00;;;;;20.23;23.20;101738.47;5073805;27;45422;-77
2022/03/06 09:25:49;;;;;;;;;52.50;37.75;;;;;20.60;23.19;101783.16;5069788;27;47040;-76
2022/03/06 09:28:14;;;;;;;;;69.00;51.50;;;;;20.51;23.13;101766.13;5077988;27;45561;-80
2022/03/06 09:30:40;;;;;;;;;66.25;54.00;;;;;20.39;23.09;101742.88;5081732;27;45480;-80
2022/03/06 09:33:05;;;;;;;;;66.25;51.75;;;;;20.56;23.07;101758.00;5078225;27;46025;-78
2022/03/06 09:35:31;;;;;;;;;65.25;50.75;;;;;20.64;23.03;101768.75;5075805;27;45802;-81
2022/03/06 09:37:57;;;;;;;;;67.00;52.75;;;;;20.75;23.09;101775.00;5073617;27;45939;-83
2022/03/06 09:40:23;;;;;;;;;57.50;48.00;;;;;20.63;22.72;101730.13;5080370;27;45481;-83
2022/03/06 09:42:48;;;;;;;;;60.00;48.75;;;;;20.32;22.96;101699.78;5078826;27;45899;-82
2022/03/06 09:45:14;;;;;;;;;62.25;48.00;;;;;20.37;22.78;101711.44;5085500;27;46486;-83
2022/03/06 09:47:42;;;;;;;;;56.50;45.75;;;;;20.62;22.35;101795.75;5071241;27;45419;-84
2022/03/06 09:50:10;;;;;;;;;61.00;49.25;;;;;20.55;23.26;101783.22;5078242;27;45504;-84
2022/03/06 09:52:35;;;;;;;;;58.00;48.50;;;;;20.66;22.71;101772.34;5060760;27;46179;-84
2022/03/06 09:55:02;;;;;;;;;61.50;49.00;;;;;20.63;21.89;101756.19;5069132;27;48377;-83
2022/03/06 09:57:28;;;;;;;;;57.25;45.75;;;;;20.62;21.87;101778.66;5048522;28;45506;-82
2022/03/06 09:59:53;;;;;;;;;57.75;46.75;;;;;20.53;22.23;101774.22;5054088;27;45972;-83
2022/03/06 10:02:19;;;;;;;;;54.00;44.00;;;;;20.45;21.91;101790.44;5071989;27;45544;-82
2022/03/06 10:04:50;;;;;;;;;50.33;41.00;;;;;20.54;22.14;101819.16;5066748;27;47236;-83
2022/03/06 10:07:17;;;;;;;;;57.33;46.33;;;;;20.62;22.13;101809.22;5076021;27;45467;-83
2022/03/06 10:09:42;;;;;;;;;60.00;46.00;;;;;20.54;21.85;101808.38;5065482;27;45805;-82
2022/03/06 10:12:40;;;;;;;;;39.67;36.33;;;;;20.59;21.72;101790.38;5064583;27;45417;-84
2022/03/06 10:15:07;;;;;;;;;53.67;43.67;;;;;20.35;21.60;101775.22;5042594;28;46355;-82
2022/03/06 10:17:33;;;;;;;;;54.50;43.00;;;;;20.22;21.86;101734.88;5056418;28;45488;-83
2022/03/06 10:20:00;;;;;;;;;44.00;35.33;;;;;20.41;21.78;101750.94;5062075;27;45492;-83
2022/03/06 10:22:29;;;;;;;;;55.00;43.25;;;;;19.95;22.06;101622.78;5056469;28;45415;-84
2022/03/06 10:25:01;;;;;;;;;53.00;42.00;;;;;20.68;20.94;101739.09;5057658;28;45498;-85
2022/03/06 10:27:49;;;;;;;;;44.67;38.33;;;;;21.25;21.07;101808.78;5063889;28;45585;-80
2022/03/06 10:30:21;;;;;;;;;46.00;34.67;;;;;21.29;20.90;101809.66;5049283;28;46489;-85
2022/03/06 10:32:46;;;;;;;;;39.33;36.33;;;;;20.69;20.82;101708.53;5065014;28;45968;-83
2022/03/06 10:35:11;;;;;;;;;35.67;35.00;;;;;21.31;20.54;101798.88;5069833;27;47996;-81
2022/03/06 10:37:37;;;;;;;;;45.33;37.00;;;;;21.03;20.68;101731.63;5047317;28;45549;-80
2022/03/06 10:40:03;;;;;;;;;40.67;37.33;;;;;21.44;20.44;101796.94;5056538;28;45833;-80
2022/03/06 10:42:28;;;;;;;;;38.33;33.00;;;;;21.35;20.06;101770.91;5064143;27;46084;-80
2022/03/06 10:44:53;;;;;;;;;44.00;37.67;;;;;21.56;20.14;101800.44;5054227;27;46230;-80
2022/03/06 10:47:19;;;;;;;;;34.00;31.00;;;;;21.41;20.30;101760.06;5045415;28;45788;-78
2022/03/06 10:50:05;;;;;;;;;28.33;24.00;;;;;21.58;19.51;101804.00;5058217;28;45899;-78
2022/03/06 10:52:43;;;;;;;;;25.00;23.67;;;;;21.33;18.09;101768.22;5047215;28;45659;-79
2022/03/06 10:55:09;;;;;;;;;31.00;28.33;;;;;21.28;18.71;101786.28;5056287;28;46278;-79
2022/03/06 10:57:34;;;;;;;;;29.67;26.33;;;;;21.20;18.67;101796.25;5055088;28;45516;-79
2022/03/06 11:00:01;;;;;;;;;25.33;24.67;;;;;21.25;18.79;101770.09;5055065;28;45546;-81
2022/03/06 11:02:27;;;;;;;;;31.00;28.00;;;;;21.46;18.53;101778.91;5053943;27;45683;-80
2022/03/06 11:04:56;;;;;;;;;29.00;29.00;;;;;21.63;18.65;101793.19;5064817;28;47944;-78